createdAt,value
2022-12-29T00:01:23.697Z,7.52
2022-12-29T00:16:24.255Z,7.60
2022-12-29T00:31:24.919Z,7.82
2022-12-29T00:46:26.020Z,8.02
2022-12-29T01:01:27.286Z,8.00
2022-12-29T01:16:28.241Z,8.00
2022-12-29T01:31:29.853Z,7.93
2022-12-29T01:46:31.444Z,7.95
2022-12-29T02:01:35.150Z,7.97
2022-12-29T02:16:35.995Z,7.74
2022-12-29T02:31:37.601Z,8.00
2022-12-29T02:46:38.677Z,7.97
2022-12-29T03:01:39.535Z,8.26
2022-12-29T03:16:39.924Z,8.52
2022-12-29T03:31:40.304Z,8.61
2022-12-29T03:46:41.316Z,8.86
2022-12-29T04:01:42.582Z,9.02
2022-12-29T04:16:43.177Z,9.26
2022-12-29T04:31:45.778Z,9.31
2022-12-29T04:46:46.798Z,9.42
2022-12-29T05:01:47.497Z,9.48
2022-12-29T05:16:48.539Z,9.61
2022-12-29T05:31:49.729Z,9.74
2022-12-29T05:46:50.308Z,9.86
2022-12-29T06:01:51.124Z,9.90
2022-12-29T06:16:51.506Z,9.94
2022-12-29T06:31:52.904Z,10.12
2022-12-29T06:46:53.681Z,10.27
2022-12-29T07:01:54.681Z,10.34
2022-12-29T07:16:55.576Z,10.33
2022-12-29T07:31:56.181Z,10.30
2022-12-29T07:46:58.019Z,10.20
2022-12-29T08:02:00.514Z,10.30
2022-12-29T08:17:00.921Z,10.55
2022-12-29T08:32:02.056Z,10.66
2022-12-29T08:47:03.145Z,10.66
2022-12-29T09:02:04.001Z,11.25
2022-12-29T09:17:04.345Z,11.46
2022-12-29T09:32:07.820Z,12.28
2022-12-29T09:47:08.716Z,13.08
2022-12-29T10:02:09.346Z,12.72
2022-12-29T10:17:10.383Z,13.30
2022-12-29T10:32:11.499Z,13.59
2022-12-29T10:47:12.095Z,13.36
2022-12-29T11:02:13.013Z,13.08
2022-12-29T11:17:14.809Z,12.96
2022-12-29T11:32:16.053Z,12.87
2022-12-29T11:47:16.738Z,12.59
2022-12-29T12:02:17.376Z,12.45
2022-12-29T12:17:17.764Z,12.13
2022-12-29T12:32:18.416Z,11.70
2022-12-29T12:47:19.020Z,11.37
2022-12-29T13:02:19.947Z,11.42
2022-12-29T13:17:20.235Z,11.27
2022-12-29T13:32:20.548Z,11.28
2022-12-29T13:47:21.775Z,11.27
2022-12-29T14:02:22.862Z,11.14
2022-12-29T14:17:23.918Z,11.06
2022-12-29T14:32:24.544Z,11.03
2022-12-29T14:47:26.044Z,10.74
2022-12-29T15:02:26.599Z,10.05
2022-12-29T15:17:27.553Z,9.56
2022-12-29T15:32:27.668Z,9.24
2022-12-29T15:47:28.366Z,9.05
2022-12-29T16:02:29.117Z,8.95
2022-12-29T16:17:29.467Z,9.24
2022-12-29T16:32:30.896Z,9.42
2022-12-29T16:47:30.911Z,9.51
2022-12-29T17:02:31.763Z,9.50
2022-12-29T17:17:33.244Z,9.61
2022-12-29T17:32:34.356Z,9.78
2022-12-29T17:47:35.130Z,10.04
2022-12-29T18:02:36.037Z,10.15
2022-12-29T18:17:37.467Z,10.04
2022-12-29T18:32:37.903Z,10.01
2022-12-29T18:47:38.997Z,9.65
2022-12-29T19:02:39.292Z,9.33
2022-12-29T19:17:39.513Z,9.51
2022-12-29T19:32:40.031Z,9.72
2022-12-29T19:47:41.185Z,9.71
2022-12-29T20:02:42.429Z,9.64
2022-12-29T20:18:12.449Z,9.57
2022-12-29T20:32:48.487Z,9.42
2022-12-29T20:47:50.086Z,9.08
2022-12-29T21:02:51.505Z,9.02
2022-12-29T21:17:52.425Z,8.81
2022-12-29T21:32:53.495Z,8.95
2022-12-29T21:47:55.110Z,9.15
2022-12-29T22:02:56.474Z,9.21
2022-12-29T22:17:57.319Z,9.42
2022-12-29T22:32:58.985Z,9.53
2022-12-29T22:48:00.094Z,9.53
2022-12-29T23:03:00.846Z,9.71
2022-12-29T23:18:01.834Z,9.72
2022-12-29T23:33:02.949Z,9.57
2022-12-29T23:48:03.525Z,9.54
